createdAt,value
2022-10-23T00:01:27.439Z,100828.81
2022-10-23T00:03:57.110Z,100825.78
2022-10-23T00:06:25.342Z,100827.84
2022-10-23T00:08:52.405Z,100827.28
2022-10-23T00:11:28.157Z,100822.38
2022-10-23T00:13:57.656Z,100831.38
2022-10-23T00:16:24.509Z,100823.38
2022-10-23T00:18:51.376Z,100829.31
2022-10-23T00:21:18.812Z,100825.91
2022-10-23T00:23:46.741Z,100833.00
2022-10-23T00:26:17.368Z,100832.38
2022-10-23T00:28:45.752Z,100823.63
2022-10-23T00:31:13.349Z,100821.41
2022-10-23T00:33:41.212Z,100826.59
2022-10-23T00:36:10.161Z,100825.22
2022-10-23T00:38:37.660Z,100821.03
2022-10-23T00:41:06.398Z,100814.34
2022-10-23T00:43:34.257Z,100816.06
2022-10-23T00:46:02.118Z,100812.97
2022-10-23T00:48:29.639Z,100806.91
2022-10-23T00:50:58.030Z,100798.00
2022-10-23T00:53:25.372Z,100802.84
2022-10-23T00:55:54.957Z,100799.25
2022-10-23T00:58:22.378Z,100802.00
2022-10-23T01:00:54.632Z,100801.66
2022-10-23T01:03:26.237Z,100789.81
2022-10-23T01:05:56.257Z,100785.28
2022-10-23T01:08:35.216Z,100777.88
2022-10-23T01:11:08.881Z,100777.75
2022-10-23T01:13:39.761Z,100778.00
2022-10-23T01:16:20.537Z,100767.84
2022-10-23T01:19:16.731Z,100769.03
2022-10-23T01:21:55.420Z,100767.25
2022-10-23T01:24:41.185Z,100769.94
2022-10-23T01:27:18.431Z,100786.22
2022-10-23T01:29:59.209Z,100774.66
2022-10-23T01:32:48.754Z,100777.38
2022-10-23T01:35:29.255Z,100776.66
2022-10-23T01:38:29.105Z,100768.00
2022-10-23T01:41:10.081Z,100760.81
2022-10-23T01:43:49.872Z,100754.41
2022-10-23T01:46:18.359Z,100749.25
2022-10-23T01:48:52.775Z,100749.53
2022-10-23T01:51:22.187Z,100752.50
2022-10-23T01:53:55.005Z,100763.59
2022-10-23T01:56:33.267Z,100768.09
2022-10-23T01:59:04.970Z,100772.97
2022-10-23T02:01:41.906Z,100776.59
2022-10-23T02:04:12.327Z,100773.06
2022-10-23T02:06:39.489Z,100769.50
2022-10-23T02:09:07.288Z,100777.25
2022-10-23T02:11:42.739Z,100771.41
2022-10-23T02:14:09.538Z,100773.94
2022-10-23T02:16:47.273Z,100783.13
2022-10-23T02:19:35.882Z,100774.19
2022-10-23T02:22:16.723Z,100775.19
2022-10-23T02:24:46.887Z,100776.69
2022-10-23T02:27:17.675Z,100775.78
2022-10-23T02:29:51.847Z,100781.69
2022-10-23T02:32:24.555Z,100774.25
2022-10-23T02:34:51.582Z,100759.75
2022-10-23T02:37:18.749Z,100767.28
2022-10-23T02:39:45.926Z,100763.81
2022-10-23T02:42:26.020Z,100764.31
2022-10-23T02:45:21.995Z,100769.44
2022-10-23T02:48:01.933Z,100772.81
2022-10-23T02:50:50.113Z,100776.44
2022-10-23T02:53:22.804Z,100773.75
2022-10-23T02:56:15.327Z,100764.34
2022-10-23T02:59:10.026Z,100772.72
2022-10-23T03:02:03.124Z,100784.94
2022-10-23T03:04:33.015Z,100786.03
2022-10-23T03:07:00.395Z,100780.03
2022-10-23T03:09:28.383Z,100783.47
2022-10-23T03:11:56.330Z,100778.47
2022-10-23T03:14:23.837Z,100775.94
2022-10-23T03:16:50.861Z,100768.16
2022-10-23T03:19:17.784Z,100770.44
2022-10-23T03:21:44.691Z,100773.94
2022-10-23T03:24:11.693Z,100778.50
2022-10-23T03:26:42.474Z,100798.09
2022-10-23T03:29:10.151Z,100798.91
2022-10-23T03:31:42.743Z,100819.63
2022-10-23T03:34:11.482Z,100821.47
2022-10-23T03:36:40.827Z,100825.25
2022-10-23T03:39:09.151Z,100824.16
2022-10-23T03:41:36.009Z,100818.75
2022-10-23T03:46:34.850Z,100826.66
2022-10-23T03:49:01.771Z,100803.09
2022-10-23T03:51:28.756Z,100808.34
2022-10-23T03:53:57.745Z,100808.06
2022-10-23T03:56:24.639Z,100801.63
2022-10-23T03:58:51.577Z,100801.16
2022-10-23T04:01:18.705Z,100801.78
2022-10-23T04:03:46.386Z,100806.72
2022-10-23T04:06:15.807Z,100804.16
2022-10-23T04:08:44.192Z,100797.88
2022-10-23T04:11:16.055Z,100800.19
2022-10-23T04:13:45.808Z,100806.56
2022-10-23T04:16:12.938Z,100804.88
2022-10-23T04:18:43.013Z,100812.22
2022-10-23T04:21:11.295Z,100812.34
2022-10-23T04:23:39.080Z,100814.31
2022-10-23T04:26:11.715Z,100820.22
2022-10-23T04:28:38.787Z,100828.91
2022-10-23T04:31:05.901Z,100827.72
2022-10-23T04:33:33.650Z,100826.06
2022-10-23T04:36:00.604Z,100827.59
2022-10-23T04:38:27.432Z,100832.59
2022-10-23T04:40:54.400Z,100834.41
2022-10-23T04:43:22.557Z,100835.44
2022-10-23T04:45:50.286Z,100842.09
2022-10-23T04:48:18.104Z,100837.19
2022-10-23T04:51:06.539Z,100849.59
2022-10-23T04:53:51.865Z,100828.50
2022-10-23T04:56:41.813Z,100830.59
2022-10-23T04:59:14.343Z,100831.97
2022-10-23T05:01:42.299Z,100831.50
2022-10-23T05:04:09.866Z,100838.41
2022-10-23T05:06:59.325Z,100847.91
2022-10-23T05:09:42.882Z,100841.78
2022-10-23T05:12:37.153Z,100851.41
2022-10-23T05:15:04.531Z,100857.84
2022-10-23T05:17:44.093Z,100852.31
2022-10-23T05:20:18.434Z,100853.84
2022-10-23T05:22:49.113Z,100843.94
2022-10-23T05:25:18.227Z,100847.34
2022-10-23T05:27:52.614Z,100852.53
2022-10-23T05:30:19.548Z,100856.91
2022-10-23T05:32:46.772Z,100842.63
2022-10-23T05:35:22.164Z,100845.50
2022-10-23T05:37:53.628Z,100852.25
2022-10-23T05:40:24.011Z,100863.50
2022-10-23T05:42:56.743Z,100858.28
2022-10-23T05:45:35.418Z,100854.03
2022-10-23T05:48:34.376Z,100867.84
2022-10-23T05:51:20.265Z,100873.50
2022-10-23T05:53:54.829Z,100863.06
2022-10-23T05:56:47.807Z,100874.88
2022-10-23T05:59:23.498Z,100877.06
2022-10-23T06:02:11.199Z,100882.34
2022-10-23T06:04:53.203Z,100866.81
2022-10-23T06:07:25.214Z,100874.66
2022-10-23T06:09:54.447Z,100866.72
2022-10-23T06:12:22.470Z,100878.69
2022-10-23T06:14:51.953Z,100881.13
2022-10-23T06:17:21.230Z,100880.28
2022-10-23T06:19:48.526Z,100882.66
2022-10-23T06:24:55.758Z,100890.69
2022-10-23T06:27:26.565Z,100885.31
2022-10-23T06:29:55.063Z,100884.00
2022-10-23T06:32:22.539Z,100884.63
2022-10-23T06:35:04.711Z,100882.91
2022-10-23T06:37:34.380Z,100856.25
2022-10-23T06:40:09.183Z,100862.19
2022-10-23T06:42:56.233Z,100877.16
2022-10-23T06:45:49.668Z,100868.41
2022-10-23T06:48:36.776Z,100869.56
2022-10-23T06:51:11.478Z,100874.63
2022-10-23T06:53:43.702Z,100882.91
2022-10-23T06:56:35.254Z,100874.94
2022-10-23T06:59:07.776Z,100876.41
2022-10-23T07:01:36.111Z,100871.47
2022-10-23T07:04:03.142Z,100883.41
2022-10-23T07:06:30.623Z,100878.41
2022-10-23T07:08:59.606Z,100887.94
2022-10-23T07:11:55.570Z,100901.16
2022-10-23T07:14:32.337Z,100900.22
2022-10-23T07:17:01.690Z,100880.75
2022-10-23T07:19:29.335Z,100890.38
2022-10-23T07:21:57.986Z,100902.13
2022-10-23T07:24:44.547Z,100907.19
2022-10-23T07:27:38.576Z,100913.41
2022-10-23T07:30:08.510Z,100916.75
2022-10-23T07:32:44.460Z,100906.63
2022-10-23T07:35:39.819Z,100906.72
2022-10-23T07:38:13.869Z,100913.06
2022-10-23T07:40:47.275Z,100923.84
2022-10-23T07:43:18.610Z,100928.19
2022-10-23T07:45:50.038Z,100927.22
2022-10-23T07:48:32.462Z,100921.06
2022-10-23T07:51:08.462Z,100922.75
2022-10-23T07:53:40.242Z,100914.19
2022-10-23T07:56:30.125Z,100920.69
2022-10-23T07:59:15.035Z,100899.22
2022-10-23T08:01:50.563Z,100906.16
2022-10-23T08:04:21.103Z,100916.03
2022-10-23T08:06:56.692Z,100926.59
2022-10-23T08:09:25.428Z,100939.88
2022-10-23T08:11:52.417Z,100946.72
2022-10-23T08:14:21.243Z,100923.88
2022-10-23T08:16:49.007Z,100930.38
2022-10-23T08:19:18.742Z,100928.22
2022-10-23T08:21:47.417Z,100947.81
2022-10-23T08:24:14.831Z,100932.47
2022-10-23T08:26:44.698Z,100943.19
2022-10-23T08:29:13.161Z,100966.34
2022-10-23T08:31:40.995Z,100948.56
2022-10-23T08:34:15.706Z,100961.16
2022-10-23T08:36:45.180Z,100953.34
2022-10-23T08:39:12.681Z,100963.31
2022-10-23T08:41:51.711Z,100967.53
2022-10-23T08:44:36.739Z,100948.53
2022-10-23T08:47:12.037Z,100951.44
2022-10-23T08:50:26.010Z,100966.25
2022-10-23T08:53:10.210Z,100967.78
2022-10-23T08:55:42.842Z,100951.69
2022-10-23T08:58:24.581Z,100948.25
2022-10-23T09:00:51.832Z,100962.66
2022-10-23T09:03:18.903Z,100952.72
2022-10-23T09:06:32.097Z,100962.84
2022-10-23T09:09:27.220Z,100970.34
2022-10-23T09:12:20.446Z,100979.66
2022-10-23T09:15:08.375Z,100965.53
2022-10-23T09:17:39.224Z,100982.50
2022-10-23T09:20:23.185Z,100984.84
2022-10-23T09:23:23.322Z,100988.78
2022-10-23T09:25:57.117Z,100986.22
2022-10-23T09:28:32.533Z,100993.09
2022-10-23T09:31:10.843Z,100987.41
2022-10-23T09:33:38.181Z,100993.16
2022-10-23T09:36:19.969Z,100984.47
2022-10-23T09:38:47.202Z,100979.41
2022-10-23T09:41:23.739Z,100976.06
2022-10-23T09:44:08.872Z,100980.06
2022-10-23T09:46:41.683Z,100967.56
2022-10-23T09:49:32.470Z,100989.22
2022-10-23T09:52:08.159Z,100981.97
2022-10-23T09:54:44.899Z,100992.22
2022-10-23T09:57:30.194Z,100986.19
2022-10-23T10:00:04.200Z,100992.63
2022-10-23T10:02:38.819Z,100984.09
2022-10-23T10:05:36.340Z,100989.47
2022-10-23T10:08:21.247Z,100978.34
2022-10-23T10:10:52.389Z,100992.47
2022-10-23T10:13:52.289Z,100988.00
2022-10-23T10:16:43.043Z,100984.81
2022-10-23T10:19:48.741Z,100977.63
2022-10-23T10:22:44.852Z,100978.06
2022-10-23T10:25:27.425Z,100986.09
2022-10-23T10:28:33.263Z,100971.41
2022-10-23T10:31:53.031Z,100996.25
2022-10-23T10:34:39.782Z,100984.97
2022-10-23T10:37:13.931Z,100988.78
2022-10-23T10:39:49.504Z,100988.47
2022-10-23T10:43:04.652Z,100981.97
2022-10-23T10:45:37.739Z,100993.19
2022-10-23T10:48:35.129Z,100985.84
2022-10-23T10:51:39.654Z,100981.72
2022-10-23T10:54:48.288Z,100980.84
2022-10-23T10:57:40.483Z,100990.25
2022-10-23T11:00:26.287Z,100990.94
2022-10-23T11:03:01.105Z,100989.38
2022-10-23T11:05:44.976Z,100978.03
2022-10-23T11:08:40.223Z,100993.00
2022-10-23T11:11:22.969Z,100988.00
2022-10-23T11:13:51.635Z,100971.41
2022-10-23T11:16:33.087Z,100975.25
2022-10-23T11:19:40.982Z,100978.94
2022-10-23T11:22:40.542Z,100977.06
2022-10-23T11:25:28.737Z,100982.69
2022-10-23T11:28:19.536Z,100976.22
2022-10-23T11:31:13.357Z,100998.41
2022-10-23T11:34:17.109Z,100990.03
2022-10-23T11:36:58.636Z,100996.53
2022-10-23T11:39:30.901Z,100990.88
2022-10-23T11:42:05.134Z,100994.59
2022-10-23T11:44:35.038Z,100991.91
2022-10-23T11:47:25.247Z,100988.72
2022-10-23T11:50:05.295Z,100989.53
2022-10-23T11:52:32.550Z,100986.25
2022-10-23T11:55:04.176Z,100983.72
2022-10-23T12:00:03.858Z,100974.97
2022-10-23T12:02:43.451Z,100987.69
2022-10-23T12:05:33.405Z,101000.31
2022-10-23T12:08:02.658Z,100997.63
2022-10-23T12:10:43.867Z,101006.72
2022-10-23T12:13:32.514Z,101012.59
2022-10-23T12:16:00.980Z,101014.91
2022-10-23T12:18:28.365Z,101006.25
2022-10-23T12:20:59.772Z,101010.69
2022-10-23T12:23:34.727Z,101011.38
2022-10-23T12:26:13.570Z,101023.53
2022-10-23T12:29:01.708Z,101002.91
2022-10-23T12:31:55.720Z,101007.63
2022-10-23T12:34:56.550Z,101012.28
2022-10-23T12:37:51.694Z,101018.53
2022-10-23T12:40:18.646Z,101010.25
2022-10-23T12:42:54.554Z,101011.84
2022-10-23T12:45:37.057Z,101012.91
2022-10-23T12:48:04.389Z,100999.38
2022-10-23T12:50:33.551Z,101017.56
2022-10-23T12:53:07.735Z,101024.16
2022-10-23T12:55:50.219Z,101019.34
2022-10-23T12:58:21.969Z,101011.00
2022-10-23T13:00:52.563Z,101010.59
2022-10-23T13:03:22.467Z,101017.00
2022-10-23T13:05:55.489Z,101024.78
2022-10-23T13:08:33.621Z,101024.38
2022-10-23T13:11:22.515Z,101018.09
2022-10-23T13:13:51.078Z,101021.66
2022-10-23T13:16:21.013Z,101022.41
2022-10-23T13:18:48.208Z,101028.22
2022-10-23T13:21:24.163Z,101014.13
2022-10-23T13:23:52.855Z,101027.75
2022-10-23T13:26:49.240Z,101026.97
2022-10-23T13:29:27.399Z,101030.41
2022-10-23T13:31:54.460Z,101036.81
2022-10-23T13:34:29.910Z,101030.22
2022-10-23T13:37:23.899Z,101042.13
2022-10-23T13:40:06.527Z,101030.31
2022-10-23T13:42:33.641Z,101034.50
2022-10-23T13:45:00.600Z,101037.16
2022-10-23T13:47:27.487Z,101037.00
2022-10-23T13:49:54.393Z,101037.66
2022-10-23T13:52:23.882Z,101037.97
2022-10-23T13:54:51.042Z,101036.81
2022-10-23T13:57:17.950Z,101047.81
2022-10-23T13:59:44.830Z,101034.47
2022-10-23T14:02:20.260Z,101036.28
2022-10-23T14:04:48.171Z,101041.63
2022-10-23T14:07:15.114Z,101041.69
2022-10-23T14:09:42.103Z,101054.91
2022-10-23T14:12:09.063Z,101059.03
2022-10-23T14:14:36.004Z,101058.53
2022-10-23T14:17:02.917Z,101056.50
2022-10-23T14:19:29.808Z,101049.03
2022-10-23T14:21:56.679Z,101055.59
2022-10-23T14:24:23.634Z,101054.38
2022-10-23T14:26:50.470Z,101057.38
2022-10-23T14:29:22.983Z,101056.22
2022-10-23T14:31:50.085Z,101059.03
2022-10-23T14:34:17.179Z,101062.50
2022-10-23T14:36:50.408Z,101063.53
2022-10-23T14:39:18.295Z,101068.84
2022-10-23T14:41:45.201Z,101068.34
2022-10-23T14:44:12.179Z,101079.34
2022-10-23T14:46:39.078Z,101087.22
2022-10-23T14:49:06.368Z,101078.16
2022-10-23T14:51:33.609Z,101082.25
2022-10-23T14:54:03.037Z,101094.66
2022-10-23T14:56:31.830Z,101093.47
2022-10-23T14:59:02.964Z,101099.97
2022-10-23T15:01:34.546Z,101103.69
2022-10-23T15:04:01.825Z,101102.13
2022-10-23T15:06:28.960Z,101109.03
2022-10-23T15:08:56.040Z,101100.38
2022-10-23T15:11:24.369Z,101104.00
2022-10-23T15:13:51.599Z,101101.13
2022-10-23T15:16:18.701Z,101101.94
2022-10-23T15:18:45.539Z,101111.50
2022-10-23T15:21:14.780Z,101115.81
2022-10-23T15:23:46.046Z,101120.19
2022-10-23T15:26:20.283Z,101122.41
2022-10-23T15:28:48.339Z,101128.97
2022-10-23T15:31:44.246Z,101143.28
2022-10-23T15:34:17.996Z,101137.78
2022-10-23T15:36:47.063Z,101140.69
2022-10-23T15:39:17.049Z,101145.84
2022-10-23T15:41:44.518Z,101151.78
2022-10-23T15:44:17.099Z,101144.31
2022-10-23T15:46:44.273Z,101144.59
2022-10-23T15:49:11.464Z,101146.31
2022-10-23T15:51:39.092Z,101151.25
2022-10-23T15:54:07.852Z,101154.16
2022-10-23T15:56:35.697Z,101158.91
2022-10-23T15:59:03.242Z,101163.06
2022-10-23T16:01:30.394Z,101167.06
2022-10-23T16:03:57.416Z,101168.53
2022-10-23T16:06:24.703Z,101170.34
2022-10-23T16:11:24.081Z,101184.50
2022-10-23T16:13:51.568Z,101183.44
2022-10-23T16:16:18.627Z,101188.63
2022-10-23T16:18:46.536Z,101200.84
2022-10-23T16:21:24.892Z,101203.78
2022-10-23T16:23:53.412Z,101203.00
2022-10-23T16:26:21.126Z,101201.25
2022-10-23T16:28:52.552Z,101209.44
2022-10-23T16:31:21.289Z,101205.16
2022-10-23T16:33:48.899Z,101211.56
2022-10-23T16:36:16.583Z,101209.28
2022-10-23T16:39:04.023Z,101218.91
2022-10-23T16:41:49.574Z,101225.69
2022-10-23T16:44:19.425Z,101227.75
2022-10-23T16:47:06.218Z,101241.63
2022-10-23T16:49:33.425Z,101237.06
2022-10-23T16:52:00.323Z,101237.81
2022-10-23T16:54:27.615Z,101233.25
2022-10-23T16:56:54.581Z,101232.22
2022-10-23T16:59:21.494Z,101239.38
2022-10-23T17:01:48.644Z,101234.88
2022-10-23T17:04:15.628Z,101235.16
2022-10-23T17:06:42.700Z,101235.56
2022-10-23T17:09:09.597Z,101241.66
2022-10-23T17:11:38.667Z,101236.66
2022-10-23T17:14:09.014Z,101245.75
2022-10-23T17:16:40.300Z,101253.28
2022-10-23T17:19:15.793Z,101248.13
2022-10-23T17:21:48.238Z,101250.28
2022-10-23T17:24:15.355Z,101247.34
2022-10-23T17:26:42.774Z,101258.13
2022-10-23T17:29:11.366Z,101256.69
2022-10-23T17:31:40.692Z,101263.09
2022-10-23T17:34:11.754Z,101261.78
2022-10-23T17:36:43.386Z,101263.91
2022-10-23T17:39:13.172Z,101263.66
2022-10-23T17:41:41.018Z,101267.50
2022-10-23T17:44:08.228Z,101260.66
2022-10-23T17:46:35.276Z,101263.81
2022-10-23T17:49:03.383Z,101272.97
2022-10-23T17:51:33.597Z,101272.00
2022-10-23T17:54:06.295Z,101272.47
2022-10-23T17:56:35.053Z,101278.47
2022-10-23T17:59:05.565Z,101275.81
2022-10-23T18:01:32.859Z,101270.81
2022-10-23T18:04:02.344Z,101279.44
2022-10-23T18:06:32.398Z,101276.09
2022-10-23T18:09:01.154Z,101273.63
2022-10-23T18:11:34.093Z,101271.97
2022-10-23T18:14:01.915Z,101272.97
2022-10-23T18:16:29.084Z,101274.16
2022-10-23T18:18:56.562Z,101275.13
2022-10-23T18:21:24.347Z,101278.28
2022-10-23T18:23:51.820Z,101275.00
2022-10-23T18:26:21.844Z,101288.09
2022-10-23T18:28:50.553Z,101287.50
2022-10-23T18:31:18.991Z,101291.44
2022-10-23T18:33:46.312Z,101294.66
2022-10-23T18:36:16.308Z,101296.16
2022-10-23T18:38:43.421Z,101305.88
2022-10-23T18:41:10.761Z,101297.84
2022-10-23T18:43:43.776Z,101311.56
2022-10-23T18:46:15.433Z,101311.09
2022-10-23T18:48:43.688Z,101311.91
2022-10-23T18:51:16.110Z,101310.94
2022-10-23T18:53:46.860Z,101313.72
2022-10-23T18:56:15.110Z,101312.94
2022-10-23T18:58:42.332Z,101310.63
2022-10-23T19:01:09.342Z,101309.22
2022-10-23T19:03:36.432Z,101301.22
2022-10-23T19:06:06.896Z,101298.91
2022-10-23T19:08:37.977Z,101304.66
2022-10-23T19:11:06.578Z,101305.38
2022-10-23T19:13:39.067Z,101315.06
2022-10-23T19:16:21.601Z,101321.06
2022-10-23T19:18:53.636Z,101323.59
2022-10-23T19:21:24.455Z,101325.06
2022-10-23T19:23:52.478Z,101325.19
2022-10-23T19:26:19.505Z,101328.59
2022-10-23T19:28:48.982Z,101333.88
2022-10-23T19:31:16.129Z,101333.50
2022-10-23T19:33:43.035Z,101338.22
2022-10-23T19:36:14.072Z,101342.13
2022-10-23T19:38:42.390Z,101343.19
2022-10-23T19:41:10.055Z,101343.13
2022-10-23T19:43:37.954Z,101346.44
2022-10-23T19:46:09.318Z,101343.97
2022-10-23T19:48:42.602Z,101340.50
2022-10-23T19:51:09.732Z,101343.50
2022-10-23T19:53:36.818Z,101341.28
2022-10-23T19:56:06.275Z,101344.72
2022-10-23T19:58:33.231Z,101353.81
2022-10-23T20:01:10.766Z,101345.22
2022-10-23T20:03:39.429Z,101355.84
2022-10-23T20:06:09.579Z,101352.78
2022-10-23T20:08:36.516Z,101351.03
2022-10-23T20:11:03.784Z,101344.31
2022-10-23T20:13:30.722Z,101346.81
2022-10-23T20:15:57.612Z,101346.66
2022-10-23T20:18:26.011Z,101350.44
2022-10-23T20:20:54.311Z,101346.28
2022-10-23T20:23:21.191Z,101357.53
2022-10-23T20:25:48.218Z,101355.91
2022-10-23T20:28:15.413Z,101355.97
2022-10-23T20:30:44.524Z,101365.81
2022-10-23T20:33:11.940Z,101361.19
2022-10-23T20:35:42.982Z,101363.06
2022-10-23T20:38:10.279Z,101368.69
2022-10-23T20:40:37.772Z,101366.31
2022-10-23T20:43:04.971Z,101359.94
2022-10-23T20:45:31.979Z,101354.81
2022-10-23T20:47:58.922Z,101363.44
2022-10-23T20:50:26.127Z,101365.16
2022-10-23T20:52:53.205Z,101368.88
2022-10-23T20:55:20.240Z,101369.31
2022-10-23T20:57:47.367Z,101363.78
2022-10-23T21:00:15.690Z,101361.16
2022-10-23T21:02:45.793Z,101358.84
2022-10-23T21:05:14.207Z,101358.31
2022-10-23T21:07:41.151Z,101369.56
2022-10-23T21:10:08.399Z,101360.44
2022-10-23T21:12:35.306Z,101361.59
2022-10-23T21:15:02.221Z,101362.28
2022-10-23T21:17:35.814Z,101363.19
2022-10-23T21:20:03.150Z,101370.06
2022-10-23T21:22:30.044Z,101357.88
2022-10-23T21:24:58.574Z,101352.97
2022-10-23T21:27:25.796Z,101353.69
2022-10-23T21:29:52.637Z,101355.72
2022-10-23T21:32:20.447Z,101361.81
2022-10-23T21:34:47.409Z,101362.09
2022-10-23T21:37:14.990Z,101362.00
2022-10-23T21:39:43.628Z,101357.56
2022-10-23T21:42:12.174Z,101350.59
2022-10-23T21:44:39.065Z,101353.75
2022-10-23T21:47:05.943Z,101352.72
2022-10-23T21:49:32.842Z,101350.94
2022-10-23T21:51:59.657Z,101350.81
2022-10-23T21:54:26.769Z,101350.78
2022-10-23T21:56:53.933Z,101333.00
2022-10-23T21:59:24.365Z,101338.78
2022-10-23T22:01:52.528Z,101335.28
2022-10-23T22:04:20.512Z,101333.06
2022-10-23T22:06:48.918Z,101334.56
2022-10-23T22:09:19.610Z,101336.63
2022-10-23T22:11:49.365Z,101343.09
2022-10-23T22:14:16.309Z,101342.25
2022-10-23T22:16:43.211Z,101342.44
2022-10-23T22:19:15.571Z,101334.28
2022-10-23T22:21:43.210Z,101331.13
2022-10-23T22:24:10.155Z,101320.50
2022-10-23T22:26:40.610Z,101330.66
2022-10-23T22:29:15.146Z,101330.56
2022-10-23T22:31:45.486Z,101318.25
2022-10-23T22:34:28.818Z,101313.38
2022-10-23T22:37:07.992Z,101313.59
2022-10-23T22:39:35.003Z,101310.94
2022-10-23T22:42:01.862Z,101311.94
2022-10-23T22:44:28.966Z,101315.72
2022-10-23T22:46:55.923Z,101323.59
2022-10-23T22:49:22.861Z,101318.16
2022-10-23T22:51:49.809Z,101322.47
2022-10-23T22:54:16.639Z,101324.59
2022-10-23T22:56:43.616Z,101324.59
2022-10-23T22:59:10.693Z,101324.44
2022-10-23T23:01:43.803Z,101320.94
2022-10-23T23:04:37.951Z,101321.84
2022-10-23T23:07:06.370Z,101309.66
2022-10-23T23:09:36.709Z,101310.47
2022-10-23T23:12:04.011Z,101317.47
2022-10-23T23:14:30.894Z,101320.09
2022-10-23T23:16:57.954Z,101323.63
2022-10-23T23:19:26.696Z,101328.19
2022-10-23T23:22:00.004Z,101325.50
2022-10-23T23:24:27.404Z,101324.56
2022-10-23T23:26:54.316Z,101333.28
2022-10-23T23:29:21.796Z,101327.13
2022-10-23T23:31:48.742Z,101341.09
2022-10-23T23:34:15.646Z,101342.03
2022-10-23T23:36:42.584Z,101344.63
2022-10-23T23:39:10.552Z,101344.81
2022-10-23T23:41:37.936Z,101348.31
2022-10-23T23:44:04.965Z,101344.78
2022-10-23T23:46:31.813Z,101360.34
2022-10-23T23:48:58.649Z,101349.84
2022-10-23T23:51:26.361Z,101360.16
2022-10-23T23:53:53.758Z,101363.66
2022-10-23T23:56:21.010Z,101358.19
2022-10-23T23:58:47.889Z,101361.91
